Time;durP1;ratioP1;P1;durP2;ratioP2;P2;SDS_P1;SDS_P2;PMS_P1;PMS_P2;Temp;Humidity;BMP_temperature;BMP_pressure;BME280_temperature;BME280_humidity;BME280_pressure;Samples;Min_cycle;Max_cycle;Signal;HPM_P1;HPM_P2
2021/06/29 00:05:08;;;;;;;11.50;5.32;;;19.20;99.90;;;;;;20901635;28;20074;-48
2021/06/29 00:15:10;;;;;;;13.48;6.22;;;19.30;99.90;;;;;;20902595;28;20047;-49
2021/06/29 00:25:13;;;;;;;13.73;6.30;;;19.10;99.90;;;;;;20903114;28;20046;-49
2021/06/29 00:35:14;;;;;;;14.40;7.20;;;19.10;99.90;;;;;;20901377;28;20056;-50
2021/06/29 00:45:16;;;;;;;12.93;6.22;;;19.10;99.90;;;;;;20898197;28;20048;-49
2021/06/29 00:55:17;;;;;;;10.85;5.90;;;19.10;99.90;;;;;;20910456;28;20045;-49
2021/06/29 01:05:19;;;;;;;11.20;5.70;;;19.00;99.90;;;;;;20901028;28;20047;-50
2021/06/29 01:15:23;;;;;;;10.63;5.57;;;19.00;99.90;;;;;;20899087;28;20194;-50
2021/06/29 01:25:28;;;;;;;11.65;5.47;;;19.00;99.90;;;;;;20903646;28;20041;-50
2021/06/29 01:35:29;;;;;;;9.88;5.20;;;19.00;99.90;;;;;;20900597;28;20044;-49
2021/06/29 01:45:32;;;;;;;8.90;4.65;;;18.90;99.90;;;;;;20898086;28;20044;-48
2021/06/29 01:55:33;;;;;;;11.77;5.40;;;18.90;99.90;;;;;;20891757;28;20095;-49
2021/06/29 02:05:34;;;;;;;12.10;5.65;;;19.00;99.90;;;;;;20898119;28;20131;-49
2021/06/29 02:15:36;;;;;;;15.40;5.65;;;18.80;99.90;;;;;;20901075;28;20048;-49
2021/06/29 02:25:37;;;;;;;12.30;4.85;;;18.60;99.90;;;;;;20891823;28;20503;-49
2021/06/29 02:35:38;;;;;;;10.68;4.45;;;18.60;99.90;;;;;;20892108;28;20056;-50
2021/06/29 02:45:40;;;;;;;8.02;4.43;;;18.60;99.90;;;;;;20898467;28;20173;-50
2021/06/29 02:55:41;;;;;;;9.27;4.95;;;18.50;99.90;;;;;;20892404;28;20181;-47
2021/06/29 03:05:42;;;;;;;8.75;3.88;;;18.50;99.90;;;;;;20900289;28;20055;-49
2021/06/29 03:15:43;;;;;;;8.60;4.25;;;18.50;99.90;;;;;;20902148;28;20045;-48
2021/06/29 03:25:44;;;;;;;8.02;3.20;;;18.50;99.90;;;;;;20909232;28;20045;-49
2021/06/29 03:35:45;;;;;;;9.70;4.05;;;18.30;99.90;;;;;;20903535;28;21644;-49
2021/06/29 03:45:47;;;;;;;9.35;4.28;;;18.20;99.90;;;;;;20906595;28;20053;-49
2021/06/29 03:55:48;;;;;;;9.68;4.05;;;18.30;99.90;;;;;;20911829;28;20044;-49
2021/06/29 04:05:49;;;;;;;7.63;4.00;;;18.40;99.90;;;;;;20902429;28;20079;-49
2021/06/29 04:15:50;;;;;;;13.43;4.63;;;18.20;99.90;;;;;;20909818;28;20065;-48
2021/06/29 04:25:52;;;;;;;8.02;3.13;;;18.30;99.90;;;;;;20908718;28;20126;-49
2021/06/29 04:35:53;;;;;;;10.38;4.68;;;18.30;99.90;;;;;;20904517;28;20068;-49
2021/06/29 04:45:54;;;;;;;8.25;4.43;;;18.40;99.90;;;;;;20908441;28;20188;-49
2021/06/29 04:55:55;;;;;;;8.15;3.88;;;18.20;99.90;;;;;;20896722;28;20053;-49
2021/06/29 05:05:56;;;;;;;9.77;3.95;;;18.30;99.90;;;;;;20899001;28;20086;-50
2021/06/29 05:15:58;;;;;;;9.02;3.65;;;18.30;99.90;;;;;;20901500;28;20083;-49
2021/06/29 05:25:59;;;;;;;12.30;4.20;;;18.40;99.90;;;;;;20909672;28;20040;-49
2021/06/29 05:36:00;;;;;;;9.35;4.20;;;18.40;99.90;;;;;;20892764;28;20127;-50
2021/06/29 05:46:02;;;;;;;7.78;4.00;;;18.40;99.90;;;;;;20889553;28;20041;-48
2021/06/29 05:56:03;;;;;;;10.57;3.78;;;18.40;99.90;;;;;;20893008;28;20041;-49
2021/06/29 06:06:04;;;;;;;8.57;4.32;;;18.40;99.90;;;;;;20882575;28;20044;-49
2021/06/29 06:16:36;;;;;;;8.90;3.15;;;18.30;99.90;;;;;;20998322;27;24446;-49
2021/06/29 06:26:37;;;;;;;8.27;3.15;;;18.20;99.90;;;;;;21019953;28;20110;-49
2021/06/29 06:36:40;;;;;;;11.23;4.30;;;18.30;99.90;;;;;;21018201;28;20105;-49
2021/06/29 06:46:41;;;;;;;11.65;4.53;;;18.40;99.90;;;;;;21015939;28;20116;-48
2021/06/29 06:56:42;;;;;;;12.13;4.07;;;18.40;99.90;;;;;;21019841;28;20055;-48
2021/06/29 07:06:43;;;;;;;11.13;4.63;;;18.40;99.90;;;;;;21018661;28;20033;-49
2021/06/29 07:16:44;;;;;;;7.97;3.63;;;18.40;99.90;;;;;;21017076;28;20038;-49
2021/06/29 07:26:46;;;;;;;7.63;3.70;;;18.40;99.90;;;;;;20964312;28;20037;-48
2021/06/29 07:36:47;;;;;;;8.00;3.97;;;18.40;99.90;;;;;;20961955;28;20136;-48
2021/06/29 07:46:48;;;;;;;11.57;4.75;;;18.50;99.90;;;;;;20959837;28;20041;-49
2021/06/29 07:56:49;;;;;;;10.23;4.07;;;18.70;99.90;;;;;;20960399;28;20041;-49
2021/06/29 08:06:51;;;;;;;19.67;6.40;;;18.80;99.90;;;;;;20957584;28;20053;-49
2021/06/29 08:16:52;;;;;;;11.77;5.60;;;18.90;99.90;;;;;;20957873;28;20380;-49
2021/06/29 08:26:53;;;;;;;8.95;4.00;;;19.00;99.90;;;;;;20956279;28;20064;-49
2021/06/29 08:36:54;;;;;;;10.98;5.75;;;19.00;99.90;;;;;;20956636;28;20036;-49
2021/06/29 08:46:55;;;;;;;10.35;4.15;;;19.20;99.90;;;;;;20957822;28;20124;-49
2021/06/29 08:56:58;;;;;;;10.63;4.20;;;19.10;99.90;;;;;;20952277;28;20036;-49
2021/06/29 09:07:33;;;;;;;12.30;5.03;;;19.30;99.90;;;;;;20952245;28;20052;-49
2021/06/29 09:17:38;;;;;;;11.20;5.43;;;19.30;99.90;;;;;;20949537;28;20035;-49
2021/06/29 09:27:44;;;;;;;13.55;5.15;;;19.50;99.90;;;;;;20951045;28;20041;-49
2021/06/29 09:37:46;;;;;;;12.38;5.90;;;19.40;99.90;;;;;;20952412;28;20045;-49
2021/06/29 09:47:48;;;;;;;8.88;4.22;;;19.20;99.90;;;;;;20946118;28;20074;-49
2021/06/29 09:58:06;;;;;;;11.63;5.00;;;19.20;99.90;;;;;;20944510;28;20036;-49
2021/06/29 10:08:08;;;;;;;17.27;5.47;;;19.40;99.90;;;;;;20950400;28;20942;-49
2021/06/29 10:18:10;;;;;;;13.25;5.43;;;19.20;99.90;;;;;;20950273;28;20110;-49
2021/06/29 10:28:13;;;;;;;11.23;5.00;;;19.10;99.90;;;;;;20949109;28;20036;-49
2021/06/29 10:38:15;;;;;;;9.98;4.00;;;19.30;99.90;;;;;;20949960;28;20041;-49
2021/06/29 10:48:23;;;;;;;13.63;4.82;;;19.40;99.90;;;;;;20945656;28;20036;-49
2021/06/29 10:58:42;;;;;;;9.43;4.17;;;19.20;99.90;;;;;;20952123;28;20417;-49
2021/06/29 11:08:47;;;;;;;8.75;3.95;;;19.20;99.90;;;;;;20959100;28;20045;-49
2021/06/29 11:18:49;;;;;;;8.40;3.85;;;19.40;99.90;;;;;;20957617;28;20035;-49
2021/06/29 11:28:52;;;;;;;14.68;5.55;;;19.60;99.90;;;;;;20956565;28;20129;-49
2021/06/29 11:39:21;;;;;;;12.65;5.00;;;19.50;99.90;;;;;;20950995;28;20123;-50
2021/06/29 11:49:33;;;;;;;12.07;4.70;;;19.60;99.90;;;;;;20949563;28;20043;-49
2021/06/29 11:59:34;;;;;;;17.80;6.20;;;19.50;99.90;;;;;;20944445;28;20135;-50
2021/06/29 12:09:36;;;;;;;15.73;6.22;;;19.60;99.90;;;;;;20945368;28;20179;-49
2021/06/29 12:19:39;;;;;;;13.15;5.70;;;19.50;99.90;;;;;;20937174;28;20390;-50
2021/06/29 12:29:41;;;;;;;8.85;3.10;;;19.40;99.90;;;;;;20929648;28;20053;-50
2021/06/29 12:39:43;;;;;;;8.10;3.25;;;19.10;99.90;;;;;;20930297;28;20050;-50
2021/06/29 12:49:49;;;;;;;5.45;1.48;;;19.00;99.90;;;;;;20942529;28;20044;-50
2021/06/29 12:59:51;;;;;;;3.95;1.58;;;18.90;99.90;;;;;;20834770;28;20049;-50
2021/06/29 13:10:06;;;;;;;1.90;0.85;;;18.80;99.90;;;;;;20435587;28;20060;-50
2021/06/29 13:20:35;;;;;;;1.80;0.90;;;18.80;99.90;;;;;;20644573;28;20081;-50
2021/06/29 13:30:41;;;;;;;2.65;1.15;;;19.00;99.90;;;;;;20938231;28;20036;-50
2021/06/29 13:40:45;;;;;;;2.88;1.38;;;18.90;99.90;;;;;;20942750;28;20028;-49
2021/06/29 13:50:46;;;;;;;5.32;1.60;;;18.80;99.90;;;;;;20940320;28;20040;-50
2021/06/29 14:00:51;;;;;;;4.05;1.50;;;18.70;99.90;;;;;;20924756;28;20075;-50
2021/06/29 14:10:55;;;;;;;3.17;1.35;;;18.50;99.90;;;;;;20906695;28;20063;-49
2021/06/29 14:20:56;;;;;;;3.05;1.02;;;19.00;99.90;;;;;;20889748;28;20373;-49
2021/06/29 14:30:57;;;;;;;3.25;1.30;;;18.70;99.90;;;;;;20907201;28;20044;-49
2021/06/29 14:40:59;;;;;;;3.90;1.95;;;18.60;99.90;;;;;;20916728;28;20143;-49
2021/06/29 14:51:00;;;;;;;3.95;1.85;;;18.40;99.90;;;;;;20930791;28;20040;-49
2021/06/29 15:01:02;;;;;;;4.13;1.75;;;18.30;99.90;;;;;;20918079;28;20041;-49
2021/06/29 15:11:03;;;;;;;6.68;2.58;;;18.30;99.90;;;;;;20913998;28;20036;-49
2021/06/29 15:21:04;;;;;;;7.45;2.13;;;18.10;99.90;;;;;;20915816;28;20337;-49
2021/06/29 15:31:06;;;;;;;5.47;2.25;;;18.00;99.90;;;;;;20914964;28;20041;-49
2021/06/29 15:41:07;;;;;;;5.07;2.40;;;17.70;99.90;;;;;;20915469;28;20097;-49
2021/06/29 15:51:09;;;;;;;9.75;1.77;;;18.10;99.90;;;;;;20914892;28;20184;-49
2021/06/29 16:01:10;;;;;;;5.80;1.85;;;18.20;99.90;;;;;;20914199;28;20036;-49
2021/06/29 16:11:11;;;;;;;5.35;2.25;;;18.00;99.90;;;;;;20919975;28;20044;-49
2021/06/29 16:21:13;;;;;;;5.53;1.95;;;17.80;99.90;;;;;;20908188;28;20048;-49
2021/06/29 16:31:15;;;;;;;3.85;1.50;;;17.60;99.90;;;;;;20364222;28;20044;-49
2021/06/29 16:41:17;;;;;;;5.25;1.23;;;17.70;99.90;;;;;;20493353;28;20063;-49
2021/06/29 16:51:18;;;;;;;3.30;1.00;;;17.70;99.90;;;;;;20919057;28;20033;-49
2021/06/29 17:01:25;;;;;;;1.90;0.98;;;17.60;99.90;;;;;;20916018;28;20454;-49
2021/06/29 17:11:27;;;;;;;2.47;1.13;;;17.50;99.90;;;;;;20919357;28;20105;-49
2021/06/29 17:21:31;;;;;;;2.30;1.08;;;17.40;99.90;;;;;;20904076;28;20036;-49
2021/06/29 17:31:33;;;;;;;1.77;0.70;;;17.30;99.90;;;;;;20918018;28;20048;-49
2021/06/29 17:41:34;;;;;;;3.58;1.02;;;17.30;99.90;;;;;;20720193;28;25081;-52
2021/06/29 17:51:36;;;;;;;2.42;0.90;;;17.00;99.90;;;;;;20352191;28;20107;-49
2021/06/29 18:01:37;;;;;;;1.85;0.50;;;16.90;99.90;;;;;;20869873;28;20037;-49
2021/06/29 18:11:39;;;;;;;0.95;0.40;;;16.90;99.90;;;;;;20910170;28;20336;-49
2021/06/29 18:21:40;;;;;;;1.33;0.70;;;16.80;99.90;;;;;;20893429;28;20134;-49
2021/06/29 18:31:42;;;;;;;1.15;0.40;;;16.90;99.90;;;;;;20913271;28;20045;-49
2021/06/29 18:41:44;;;;;;;1.30;0.80;;;16.80;99.90;;;;;;20912855;28;20186;-49
2021/06/29 18:51:45;;;;;;;1.67;0.60;;;16.70;99.90;;;;;;20908450;28;20074;-49
2021/06/29 19:01:47;;;;;;;2.25;0.40;;;16.60;99.90;;;;;;20912478;28;20028;-49
2021/06/29 19:11:49;;;;;;;0.95;0.40;;;16.50;99.90;;;;;;20907941;28;20182;-49
2021/06/29 19:21:50;;;;;;;2.30;0.40;;;16.50;99.90;;;;;;20927407;28;20048;-48
2021/06/29 19:31:51;;;;;;;1.52;0.55;;;16.40;99.90;;;;;;20918248;28;20047;-49
2021/06/29 19:41:52;;;;;;;2.22;1.10;;;16.40;99.90;;;;;;20924333;28;20039;-49
2021/06/29 19:51:54;;;;;;;3.78;0.60;;;16.30;99.90;;;;;;20907881;28;20151;-48
2021/06/29 20:01:55;;;;;;;1.05;0.55;;;16.30;99.90;;;;;;20913097;28;20123;-49
2021/06/29 20:11:57;;;;;;;2.28;0.65;;;16.10;99.90;;;;;;20911702;28;20095;-49
2021/06/29 20:22:01;;;;;;;3.80;1.77;;;16.10;99.90;;;;;;20920990;28;20024;-49
2021/06/29 20:32:02;;;;;;;1.15;0.63;;;16.10;99.90;;;;;;20927060;28;20067;-48
2021/06/29 20:42:05;;;;;;;1.58;0.65;;;16.00;99.90;;;;;;20925486;28;20181;-49
2021/06/29 20:52:07;;;;;;;1.77;0.93;;;16.00;99.90;;;;;;20928685;28;20183;-49
2021/06/29 21:02:09;;;;;;;3.10;0.60;;;16.00;99.90;;;;;;20916111;28;20067;-48
2021/06/29 21:12:10;;;;;;;2.75;0.65;;;16.00;99.90;;;;;;20920368;28;20048;-48
2021/06/29 21:22:11;;;;;;;1.90;0.70;;;16.00;99.90;;;;;;20928869;28;20033;-49
2021/06/29 21:32:16;;;;;;;1.38;0.45;;;15.70;99.90;;;;;;20938763;28;20056;-48
2021/06/29 21:42:17;;;;;;;0.90;0.30;;;15.70;99.90;;;;;;20924576;28;20117;-48
2021/06/29 21:52:18;;;;;;;7.63;0.63;;;15.70;99.90;;;;;;20928968;28;20040;-48
2021/06/29 22:02:19;;;;;;;2.53;0.82;;;15.70;99.90;;;;;;20925298;28;20040;-49
2021/06/29 22:12:23;;;;;;;1.65;0.73;;;15.60;99.90;;;;;;20920516;28;20058;-48
2021/06/29 22:22:24;;;;;;;1.08;0.43;;;15.50;99.90;;;;;;20925742;28;20133;-49
2021/06/29 22:32:26;;;;;;;1.52;0.75;;;15.40;99.90;;;;;;20923094;28;20045;-48
2021/06/29 22:42:27;;;;;;;1.05;0.32;;;15.30;99.90;;;;;;20918480;28;20056;-49
2021/06/29 22:52:28;;;;;;;1.65;0.68;;;15.20;99.90;;;;;;20932886;28;20040;-48
2021/06/29 23:02:29;;;;;;;3.88;0.60;;;15.30;99.90;;;;;;20943848;28;20040;-49
2021/06/29 23:12:30;;;;;;;1.48;0.60;;;15.20;99.90;;;;;;20942759;28;20044;-49
2021/06/29 23:22:32;;;;;;;2.58;1.17;;;15.10;99.90;;;;;;20943486;28;20047;-48
2021/06/29 23:32:33;;;;;;;2.63;0.90;;;15.20;99.90;;;;;;20937374;28;20124;-48
2021/06/29 23:42:36;;;;;;;1.73;0.82;;;15.20;99.90;;;;;;20938264;28;20040;-48
2021/06/29 23:52:37;;;;;;;2.42;0.98;;;15.10;99.90;;;;;;20939113;28;20048;-48
